Weather History for Shawnee, OK

Change the Weather History Date:

Wednesday, April 23, 2014

  Actual Average (KTIK) Record (KTIK)
Temperature  
Mean Temperature 73 °F -  
Max Temperature 87 °F 68 °F 89 °F (2006)
Min Temperature 59 °F 49 °F 34 °F (2013)
Cooling Degree Days 8    
Growing Degree Days 23 (Base 50)    
Moisture  
Dew Point 55 °F    
Average Humidity 54    
Maximum Humidity 63    
Minimum Humidity 38    
Precipitation  
Precipitation 0.00 in - - ()
Sea Level Pressure  
Sea Level Pressure 29.86 in    
Wind  
Wind Speed 8 mph (SSE)    
Max Wind Speed 17 mph    
Max Gust Speed 23 mph    
Visibility 10 miles    
Events Rain    
Averages and records for this station are not official NWS values.
T = Trace of Precipitation, MM = Missing Value Source: NWS Daily Summary

Daily Weather History Graph

Daily Weather History Graph

Search for Another Location

Airport:

Trip Planner

Search our weather history database for the weather conditions in past years. The results will help you decide how hot, cold, wet, or windy it might be!

Date:

Astronomy

Apr. 23, 2014 Rise Set
Actual Time 6:45 AM CDT 8:07 PM CDT
Civil Twilight 6:18 AM CDT 8:34 PM CDT
Nautical Twilight 5:46 AM CDT 9:05 PM CDT
Astronomical Twilight 5:13 AM CDT 9:39 PM CDT
Moon 3:04 AM CDT (4/23) 2:29 PM CDT (4/23)
Length of Visible Light 14h 15m
Length of Day
13h 21m
Waning Crescent, 34% of the Moon is Illuminated
Apr 23
Waning Crescent
Apr 29
New
May 6
First Quarter
May 14
Full
May 21
Last Quarter

Hourly Weather History & Observations

Time (CDT) Temp. Heat Index Dew Point Humidity Pressure Visibility Wind Dir Wind Speed Gust Speed Precip Events Conditions
12:15 AM 62.6 °F - 46.4 °F 55% 29.98 in 10.0 mi SE 4.6 mph - N/A   Clear
12:35 AM 60.8 °F - 46.4 °F 59% 29.98 in 10.0 mi SE 5.8 mph - N/A   Clear
12:55 AM 60.8 °F - 46.4 °F 59% 29.97 in 10.0 mi SE 5.8 mph - N/A   Clear
1:15 AM 60.8 °F - 46.4 °F 59% 29.97 in 10.0 mi SE 5.8 mph - N/A   Clear
1:35 AM 60.8 °F - 46.4 °F 59% 29.97 in 10.0 mi SE 4.6 mph - N/A   Clear
1:55 AM 59.0 °F - 46.4 °F 63% 29.97 in 10.0 mi SE 4.6 mph - N/A   Clear
2:15 AM 59.0 °F - 44.6 °F 59% 29.97 in 10.0 mi SE 4.6 mph - N/A   Clear
2:35 AM 59.0 °F - 44.6 °F 59% 29.96 in 10.0 mi SE 4.6 mph - N/A   Clear
2:55 AM 59.0 °F - 46.4 °F 63% 29.95 in 10.0 mi SE 4.6 mph - N/A   Clear
3:15 AM 59.0 °F - 46.4 °F 63% 29.94 in 10.0 mi SE 5.8 mph - N/A   Clear
3:35 AM 59.0 °F - 46.4 °F 63% 29.93 in 10.0 mi SE 5.8 mph - N/A   Clear
3:55 AM 59.0 °F - 44.6 °F 59% 29.93 in 10.0 mi SE 5.8 mph - N/A   Clear
4:15 AM 59.0 °F - 44.6 °F 59% 29.93 in 10.0 mi SE 5.8 mph - N/A   Clear
4:35 AM 59.0 °F - 44.6 °F 59% 29.92 in 10.0 mi SE 5.8 mph - N/A   Clear
4:55 AM 59.0 °F - 44.6 °F 59% 29.92 in 10.0 mi SE 5.8 mph - N/A   Clear
5:15 AM 59.0 °F - 44.6 °F 59% 29.92 in 10.0 mi SE 5.8 mph - N/A   Clear
5:35 AM 59.0 °F - 44.6 °F 59% 29.92 in 10.0 mi SSE 5.8 mph - N/A   Clear
5:55 AM 59.0 °F - 44.6 °F 59% 29.92 in 10.0 mi SSE 4.6 mph - N/A   Clear
6:15 AM 59.0 °F - 44.6 °F 59% 29.91 in 10.0 mi SE 8.1 mph - N/A   Clear
6:35 AM 59.0 °F - 44.6 °F 59% 29.92 in 10.0 mi SSE 5.8 mph - N/A   Clear
6:55 AM 59.0 °F - 44.6 °F 59% 29.92 in 10.0 mi SSE 5.8 mph - N/A   Clear
7:15 AM 59.0 °F - 44.6 °F 59% 29.92 in 10.0 mi SSE 8.1 mph - N/A   Clear
7:35 AM 59.0 °F - 44.6 °F 59% 29.93 in 10.0 mi South 6.9 mph - N/A   Clear
7:55 AM 60.8 °F - 46.4 °F 59% 29.93 in 10.0 mi SSE 8.1 mph - N/A   Clear
8:15 AM 60.8 °F - 46.4 °F 59% 29.92 in 10.0 mi SSE 9.2 mph - N/A   Clear
8:35 AM 62.6 °F - 48.2 °F 59% 29.92 in 10.0 mi SSE 11.5 mph - N/A   Clear
8:55 AM 66.2 °F - 50.0 °F 56% 29.93 in 10.0 mi SSE 9.2 mph - N/A   Clear
9:15 AM 68.0 °F - 51.8 °F 56% 29.94 in 10.0 mi South 8.1 mph - N/A   Clear
9:35 AM 71.6 °F - 53.6 °F 53% 29.93 in 10.0 mi South 10.4 mph - N/A   Clear
9:55 AM 71.6 °F - 53.6 °F 53% 29.93 in 10.0 mi South 9.2 mph - N/A   Clear
10:15 AM 75.2 °F - 55.4 °F 50% 29.93 in 10.0 mi South 10.4 mph - N/A   Clear
10:35 AM 77.0 °F - 57.2 °F 50% 29.92 in 10.0 mi South 11.5 mph 18.4 mph N/A   Clear
10:55 AM 77.0 °F - 59.0 °F 54% 29.92 in 10.0 mi South 15.0 mph 19.6 mph N/A   Clear
11:15 AM 78.8 °F - 59.0 °F 51% 29.91 in 10.0 mi South 15.0 mph - N/A   Clear
11:35 AM 80.6 °F 81.5 °F 60.8 °F 51% 29.90 in 10.0 mi South 13.8 mph - N/A   Clear
12:35 PM 82.4 °F 82.9 °F 60.8 °F 48% 29.87 in 10.0 mi SSW 11.5 mph - N/A   Clear
12:55 PM 82.4 °F 82.9 °F 60.8 °F 48% 29.87 in 10.0 mi South 16.1 mph 21.9 mph N/A   Clear
1:15 PM 82.4 °F 82.9 °F 60.8 °F 48% 29.86 in 10.0 mi South 15.0 mph - N/A   Clear
1:35 PM 82.4 °F 82.9 °F 60.8 °F 48% 29.85 in 10.0 mi South 15.0 mph - N/A   Clear
1:55 PM 84.2 °F 84.4 °F 60.8 °F 45% 29.84 in 10.0 mi South 12.7 mph - N/A   Clear
2:15 PM 86.0 °F 86.1 °F 60.8 °F 43% 29.83 in 10.0 mi SSE 15.0 mph 19.6 mph N/A   Clear
2:35 PM 86.0 °F 86.1 °F 60.8 °F 43% 29.82 in 10.0 mi South 13.8 mph 20.7 mph N/A   Clear
2:55 PM 86.0 °F 85.4 °F 59.0 °F 40% 29.82 in 10.0 mi South 13.8 mph - N/A   Clear
3:15 PM 87.8 °F 88.5 °F 62.6 °F 43% 29.82 in 10.0 mi South 17.3 mph - N/A   Clear
3:35 PM 87.8 °F 87.6 °F 60.8 °F 40% 29.81 in 10.0 mi South 13.8 mph 19.6 mph N/A   Clear
3:55 PM 87.8 °F 87.6 °F 60.8 °F 40% 29.80 in 10.0 mi South 11.5 mph 17.3 mph N/A   Clear
4:15 PM 87.8 °F 87.6 °F 60.8 °F 40% 29.79 in 10.0 mi South 16.1 mph 23.0 mph N/A   Clear
4:35 PM 87.8 °F 87.1 °F 59.0 °F 38% 29.78 in 10.0 mi South 13.8 mph 21.9 mph N/A   Clear
4:55 PM 87.8 °F 87.6 °F 60.8 °F 40% 29.77 in 10.0 mi South 12.7 mph 19.6 mph N/A   Clear
5:15 PM 87.8 °F 87.6 °F 60.8 °F 40% 29.77 in 10.0 mi South 10.4 mph 16.1 mph N/A   Clear
5:35 PM 86.0 °F 86.1 °F 60.8 °F 43% 29.75 in 10.0 mi South 11.5 mph 19.6 mph N/A   Clear
5:55 PM 86.0 °F 86.1 °F 60.8 °F 43% 29.74 in 10.0 mi SSE 16.1 mph 21.9 mph N/A   Clear
6:15 PM 86.0 °F 86.1 °F 60.8 °F 43% 29.74 in 10.0 mi SSE 16.1 mph 20.7 mph N/A   Clear
6:35 PM 84.2 °F 84.4 °F 60.8 °F 45% 29.74 in 10.0 mi South 17.3 mph 20.7 mph N/A   Clear
6:55 PM 82.4 °F 82.5 °F 59.0 °F 45% 29.74 in 10.0 mi SSE 13.8 mph 21.9 mph N/A   Clear
7:15 PM 80.6 °F 81.1 °F 59.0 °F 48% 29.73 in 10.0 mi South 12.7 mph 17.3 mph N/A   Clear
7:35 PM 80.6 °F 81.8 °F 62.6 °F 54% 29.71 in 10.0 mi SSE 9.2 mph 18.4 mph N/A   Clear
7:55 PM 78.8 °F - 62.6 °F 57% 29.72 in 10.0 mi SSE 10.4 mph - N/A   Clear
8:15 PM 78.8 °F - 62.6 °F 57% 29.74 in 10.0 mi SSE 11.5 mph - N/A   Clear
8:35 PM 78.8 °F - 62.6 °F 57% 29.75 in 10.0 mi SSE 15.0 mph 19.6 mph N/A   Clear
8:55 PM 78.8 °F - 62.6 °F 57% 29.76 in 10.0 mi SSE 11.5 mph - N/A   Clear
9:15 PM 78.8 °F - 62.6 °F 57% 29.77 in 10.0 mi SSE 12.7 mph 17.3 mph N/A   Clear
9:55 PM 77.0 °F - 62.6 °F 61% 29.78 in 10.0 mi SSE 10.4 mph 16.1 mph N/A Rain Light Rain
10:15 PM 77.0 °F - 62.6 °F 61% 29.78 in 10.0 mi SSE 8.1 mph - N/A   Scattered Clouds
10:35 PM 77.0 °F - 62.6 °F 61% 29.77 in 10.0 mi SSE 11.5 mph - N/A   Scattered Clouds
10:55 PM 77.0 °F - 62.6 °F 61% 29.76 in 10.0 mi SSE 9.2 mph 18.4 mph N/A   Scattered Clouds
11:15 PM 77.0 °F - 62.6 °F 61% 29.78 in 10.0 mi SSE 9.2 mph 18.4 mph N/A   Scattered Clouds
11:35 PM 77.0 °F - 62.6 °F 61% 29.79 in 10.0 mi South 6.9 mph - N/A Rain Light Rain
11:55 PM 77.0 °F - 62.6 °F 61% 29.79 in 10.0 mi SSE 4.6 mph - N/A   Scattered Clouds